RYR9466 LDPL-EDLV
Flight info
| Callsign | RYR9466 |
|---|---|
| Flight time | 1h 14m |
| Altitude | 34000 |
| Route | GIRDA DCT OGODI DCT DEGUM DCT RASTA DCT SIMBA DCT EXITI DCT TESDU DCT AMETU T852 EKSAK/N0382F260 T852 KULIX/N0372F240 T852 HMM Z850 TURUX DCT SOBTU SOBTU1W |
| Aircraft | B738/M-SDE2E3FGHIRWXY/LB1 |
Departure
| Time | 2026-05-04 10:40 |
|---|---|
| Airport | Pula Airport (LDPL) |
Arrival
| Time | 2026-05-04 11:55 |
|---|---|
| Airport | Weeze (Niederrhein) Airport (EDLV) |
| Time | Latitude | Longitude | Altitude | Speed | Heading |
|---|---|---|---|---|---|
| 2026-05-04 10:11 | 44.89753 | 13.92393 | 222 ft | 0 kts | 314° |
| 2026-05-04 10:32 | 44.89772 | 13.92452 | 220 ft | 0 kts | 178° |
| 2026-05-04 10:35 | 44.89758 | 13.92453 | 221 ft | 8 kts | 178° |
| 2026-05-04 10:35 | 44.89689 | 13.92457 | 219 ft | 10 kts | 178° |
| 2026-05-04 10:36 | 44.89654 | 13.92458 | 218 ft | 2 kts | 177° |
| 2026-05-04 10:36 | 44.89652 | 13.92459 | 218 ft | 0 kts | 178° |
| 2026-05-04 10:36 | 44.89626 | 13.92460 | 221 ft | 10 kts | 179° |
| 2026-05-04 10:36 | 44.89573 | 13.92273 | 222 ft | 24 kts | 268° |
| 2026-05-04 10:37 | 44.89573 | 13.92113 | 225 ft | 24 kts | 270° |
| 2026-05-04 10:37 | 44.89568 | 13.91887 | 214 ft | 23 kts | 268° |
| 2026-05-04 10:37 | 44.89561 | 13.91650 | 201 ft | 26 kts | 268° |
| 2026-05-04 10:37 | 44.89554 | 13.91390 | 192 ft | 26 kts | 269° |
| 2026-05-04 10:39 | 44.89316 | 13.90481 | 177 ft | 0 kts | 89° |
| 2026-05-04 10:39 | 44.89319 | 13.90606 | 178 ft | 42 kts | 88° |
| 2026-05-04 10:40 | 44.89335 | 13.91338 | 197 ft | 105 kts | 88° |
| 2026-05-04 10:40 | 44.89363 | 13.92629 | 225 ft | 155 kts | 89° |
| 2026-05-04 10:40 | 44.89400 | 13.94241 | 623 ft | 172 kts | 90° |
| 2026-05-04 10:40 | 44.89432 | 13.95985 | 1186 ft | 184 kts | 90° |
| 2026-05-04 10:41 | 44.89470 | 13.97839 | 1669 ft | 206 kts | 89° |
| 2026-05-04 10:41 | 44.89515 | 14.00001 | 1892 ft | 229 kts | 89° |
| 2026-05-04 10:41 | 44.89704 | 14.02258 | 2300 ft | 241 kts | 71° |
| 2026-05-04 10:41 | 44.90747 | 14.04124 | 2877 ft | 246 kts | 32° |
| 2026-05-04 10:42 | 44.92360 | 14.04795 | 3528 ft | 249 kts | 356° |
| 2026-05-04 10:42 | 44.94052 | 14.04328 | 4326 ft | 248 kts | 348° |
| 2026-05-04 10:42 | 44.95764 | 14.04581 | 5079 ft | 255 kts | 26° |
| 2026-05-04 10:42 | 44.97200 | 14.06070 | 5835 ft | 258 kts | 37° |
| 2026-05-04 10:43 | 44.98671 | 14.07531 | 6563 ft | 257 kts | 31° |
| 2026-05-04 10:44 | 45.11215 | 14.10920 | 8905 ft | 289 kts | 356° |
| 2026-05-04 10:45 | 45.13244 | 14.10806 | 9591 ft | 295 kts | 356° |
| 2026-05-04 10:45 | 45.15311 | 14.10691 | 10267 ft | 301 kts | 357° |
| 2026-05-04 10:45 | 45.17475 | 14.10591 | 10471 ft | 323 kts | 359° |
| 2026-05-04 10:45 | 45.19797 | 14.10714 | 10673 ft | 343 kts | 3° |
| 2026-05-04 10:46 | 45.22195 | 14.10954 | 11093 ft | 354 kts | 4° |
| 2026-05-04 10:46 | 45.24673 | 14.11224 | 11734 ft | 359 kts | 4° |
| 2026-05-04 10:46 | 45.27167 | 14.11486 | 12444 ft | 362 kts | 4° |
| 2026-05-04 10:46 | 45.29695 | 14.11738 | 13126 ft | 366 kts | 3° |
| 2026-05-04 10:47 | 45.32273 | 14.11986 | 13663 ft | 375 kts | 3° |
| 2026-05-04 10:47 | 45.34873 | 14.12228 | 14443 ft | 375 kts | 3° |
| 2026-05-04 10:47 | 45.37489 | 14.12469 | 15102 ft | 379 kts | 3° |
| 2026-05-04 10:47 | 45.40130 | 14.12712 | 15742 ft | 383 kts | 3° |
| 2026-05-04 10:49 | 45.58752 | 14.08138 | 20111 ft | 403 kts | 339° |
| 2026-05-04 10:49 | 45.61413 | 14.06845 | 20666 ft | 406 kts | 340° |
| 2026-05-04 10:50 | 45.64093 | 14.05556 | 21358 ft | 405 kts | 340° |
| 2026-05-04 10:51 | 45.83019 | 13.96486 | 25049 ft | 417 kts | 340° |
| 2026-05-04 10:52 | 45.85769 | 13.95161 | 25548 ft | 417 kts | 340° |
| 2026-05-04 10:52 | 45.88535 | 13.93829 | 25910 ft | 421 kts | 339° |
| 2026-05-04 10:52 | 45.91321 | 13.92485 | 26245 ft | 425 kts | 340° |
| 2026-05-04 10:54 | 46.11508 | 13.83922 | 28955 ft | 438 kts | 343° |
| 2026-05-04 10:54 | 46.14447 | 13.82771 | 29476 ft | 436 kts | 342° |
| 2026-05-04 10:56 | 46.34595 | 13.74729 | 32342 ft | 428 kts | 342° |
| 2026-05-04 10:56 | 46.37466 | 13.73574 | 32631 ft | 429 kts | 342° |
| 2026-05-04 10:56 | 46.40349 | 13.72415 | 32896 ft | 430 kts | 342° |
| 2026-05-04 10:57 | 46.43218 | 13.71263 | 33356 ft | 426 kts | 341° |
| 2026-05-04 10:57 | 46.46075 | 13.70114 | 33626 ft | 427 kts | 342° |
| 2026-05-04 10:57 | 46.48970 | 13.69067 | 33834 ft | 430 kts | 344° |
| 2026-05-04 10:57 | 46.51895 | 13.68154 | 34113 ft | 431 kts | 345° |
| 2026-05-04 10:58 | 46.54857 | 13.67282 | 34082 ft | 435 kts | 345° |
| 2026-05-04 10:58 | 46.60771 | 13.65557 | 34106 ft | 431 kts | 346° |
| 2026-05-04 10:59 | 46.66609 | 13.63813 | 34090 ft | 426 kts | 346° |
| 2026-05-04 10:59 | 46.72412 | 13.62046 | 34092 ft | 426 kts | 345° |
| 2026-05-04 11:00 | 46.78186 | 13.60275 | 34084 ft | 427 kts | 346° |
| 2026-05-04 11:02 | 47.01554 | 13.53075 | 34057 ft | 431 kts | 346° |
| 2026-05-04 11:05 | 47.45415 | 13.39388 | 34032 ft | 427 kts | 345° |
| 2026-05-04 11:06 | 47.51211 | 13.37387 | 34017 ft | 426 kts | 340° |
| 2026-05-04 11:06 | 47.56830 | 13.34655 | 34013 ft | 425 kts | 338° |
| 2026-05-04 11:10 | 47.96198 | 13.15040 | 34009 ft | 426 kts | 338° |
| 2026-05-04 11:12 | 48.18704 | 13.03766 | 34003 ft | 426 kts | 338° |
| 2026-05-04 11:12 | 48.24118 | 13.00313 | 34007 ft | 420 kts | 324° |
| 2026-05-04 11:13 | 48.28748 | 12.95069 | 34019 ft | 417 kts | 318° |
| 2026-05-04 11:13 | 48.33260 | 12.89689 | 34003 ft | 417 kts | 318° |
| 2026-05-04 11:16 | 48.56160 | 12.62622 | 34008 ft | 419 kts | 318° |
| 2026-05-04 11:16 | 48.60746 | 12.57179 | 34004 ft | 419 kts | 318° |
| 2026-05-04 11:17 | 48.65333 | 12.51720 | 34005 ft | 420 kts | 318° |
| 2026-05-04 11:19 | 49.33254 | 11.69365 | 34006 ft | 420 kts | 317° |
| 2026-05-04 11:19 | 49.54181 | 11.43363 | 33620 ft | 421 kts | 319° |
| 2026-05-04 11:20 | 49.56408 | 11.40558 | 34065 ft | 418 kts | 314° |
| 2026-05-04 11:20 | 49.58548 | 11.37498 | 34025 ft | 419 kts | 311° |
| 2026-05-04 11:20 | 49.74170 | 11.13013 | 34020 ft | 427 kts | 310° |
| 2026-05-04 11:22 | 50.29612 | 10.19930 | 34017 ft | 423 kts | 298° |
| 2026-05-04 11:22 | 50.36216 | 10.04697 | 33955 ft | 421 kts | 299° |
| 2026-05-04 11:23 | 50.40687 | 9.94629 | 33433 ft | 414 kts | 300° |
| 2026-05-04 11:23 | 50.42319 | 9.90949 | 34032 ft | 410 kts | 299° |
| 2026-05-04 11:25 | 50.61743 | 9.46603 | 33988 ft | 420 kts | 299° |
| 2026-05-04 11:25 | 50.78463 | 9.07787 | 33980 ft | 412 kts | 298° |
| 2026-05-04 11:27 | 50.93756 | 8.75570 | 33339 ft | 390 kts | 302° |
| 2026-05-04 11:28 | 50.95430 | 8.72217 | 33006 ft | 385 kts | 302° |
| 2026-05-04 11:28 | 50.97083 | 8.68896 | 32614 ft | 383 kts | 302° |
| 2026-05-04 11:28 | 50.98728 | 8.65591 | 32259 ft | 379 kts | 302° |
| 2026-05-04 11:28 | 51.00353 | 8.62327 | 31900 ft | 376 kts | 303° |
| 2026-05-04 11:29 | 51.02120 | 8.59345 | 31556 ft | 379 kts | 312° |
| 2026-05-04 11:29 | 51.04238 | 8.56796 | 31227 ft | 386 kts | 320° |
| 2026-05-04 11:29 | 51.06508 | 8.54440 | 30887 ft | 392 kts | 321° |
| 2026-05-04 11:29 | 51.08769 | 8.52142 | 30534 ft | 391 kts | 321° |
| 2026-05-04 11:31 | 51.24354 | 8.36005 | 27922 ft | 371 kts | 320° |
| 2026-05-04 11:33 | 51.39193 | 8.20419 | 25499 ft | 363 kts | 321° |
| 2026-05-04 11:33 | 51.41307 | 8.18208 | 25154 ft | 361 kts | 321° |
| 2026-05-04 11:33 | 51.43398 | 8.16009 | 24815 ft | 359 kts | 321° |
| 2026-05-04 11:34 | 51.45481 | 8.13801 | 24458 ft | 358 kts | 321° |
| 2026-05-04 11:34 | 51.47550 | 8.11603 | 24125 ft | 356 kts | 321° |
| 2026-05-04 11:34 | 51.49611 | 8.09413 | 23776 ft | 355 kts | 321° |
| 2026-05-04 11:34 | 51.51669 | 8.07226 | 23419 ft | 354 kts | 321° |
| 2026-05-04 11:35 | 51.53723 | 8.05043 | 23026 ft | 353 kts | 321° |
| 2026-05-04 11:35 | 51.55763 | 8.02878 | 22648 ft | 351 kts | 321° |
| 2026-05-04 11:35 | 51.57766 | 8.00750 | 22306 ft | 348 kts | 321° |
| 2026-05-04 11:35 | 51.59807 | 7.98579 | 21956 ft | 346 kts | 321° |
| 2026-05-04 11:36 | 51.61807 | 7.96449 | 21620 ft | 344 kts | 321° |
| 2026-05-04 11:36 | 51.63795 | 7.94329 | 21273 ft | 341 kts | 321° |
| 2026-05-04 11:36 | 51.65768 | 7.92221 | 20958 ft | 339 kts | 321° |
| 2026-05-04 11:36 | 51.67730 | 7.90123 | 20630 ft | 337 kts | 321° |
| 2026-05-04 11:37 | 51.69653 | 7.88065 | 20308 ft | 336 kts | 321° |
| 2026-05-04 11:37 | 51.71591 | 7.85988 | 19989 ft | 334 kts | 321° |
| 2026-05-04 11:37 | 51.73524 | 7.83914 | 19661 ft | 333 kts | 321° |
| 2026-05-04 11:37 | 51.75449 | 7.81846 | 19356 ft | 332 kts | 321° |
| 2026-05-04 11:38 | 51.77377 | 7.79772 | 19002 ft | 333 kts | 322° |
| 2026-05-04 11:38 | 51.79301 | 7.77704 | 18694 ft | 332 kts | 322° |
| 2026-05-04 11:38 | 51.81220 | 7.75638 | 18354 ft | 331 kts | 323° |
| 2026-05-04 11:38 | 51.83134 | 7.73575 | 17996 ft | 330 kts | 323° |
| 2026-05-04 11:39 | 51.85033 | 7.71506 | 17635 ft | 327 kts | 320° |
| 2026-05-04 11:39 | 51.86681 | 7.69036 | 17291 ft | 321 kts | 306° |
| 2026-05-04 11:40 | 51.90609 | 7.50709 | 14864 ft | 290 kts | 263° |
| 2026-05-04 11:41 | 51.90433 | 7.47467 | 14388 ft | 288 kts | 263° |
| 2026-05-04 11:41 | 51.90263 | 7.44251 | 13931 ft | 285 kts | 264° |
| 2026-05-04 11:41 | 51.90098 | 7.41065 | 13432 ft | 283 kts | 264° |
| 2026-05-04 11:41 | 51.89935 | 7.37894 | 12889 ft | 282 kts | 264° |
| 2026-05-04 11:42 | 51.89775 | 7.34747 | 12468 ft | 277 kts | 264° |
| 2026-05-04 11:42 | 51.89620 | 7.31710 | 12145 ft | 271 kts | 264° |
| 2026-05-04 11:42 | 51.89466 | 7.28691 | 11849 ft | 270 kts | 264° |
| 2026-05-04 11:42 | 51.89313 | 7.25715 | 11573 ft | 275 kts | 264° |
| 2026-05-04 11:43 | 51.89153 | 7.22603 | 11283 ft | 281 kts | 264° |
| 2026-05-04 11:43 | 51.88991 | 7.19451 | 10976 ft | 280 kts | 264° |
| 2026-05-04 11:43 | 51.88828 | 7.16310 | 10678 ft | 279 kts | 264° |
| 2026-05-04 11:43 | 51.88665 | 7.13180 | 10384 ft | 278 kts | 264° |
| 2026-05-04 11:44 | 51.88503 | 7.10072 | 10151 ft | 275 kts | 264° |
| 2026-05-04 11:44 | 51.88344 | 7.07032 | 10030 ft | 268 kts | 264° |
| 2026-05-04 11:44 | 51.88187 | 7.04041 | 9770 ft | 266 kts | 264° |
| 2026-05-04 11:44 | 51.88029 | 7.01067 | 9487 ft | 265 kts | 264° |
| 2026-05-04 11:45 | 51.87871 | 6.98107 | 9210 ft | 264 kts | 264° |
| 2026-05-04 11:45 | 51.87713 | 6.95158 | 8935 ft | 262 kts | 264° |
| 2026-05-04 11:45 | 51.87524 | 6.92225 | 8662 ft | 261 kts | 257° |
| 2026-05-04 11:45 | 51.86767 | 6.89611 | 8437 ft | 257 kts | 234° |
| 2026-05-04 11:46 | 51.85688 | 6.87303 | 8167 ft | 259 kts | 232° |
| 2026-05-04 11:46 | 51.84566 | 6.85013 | 7891 ft | 260 kts | 231° |
| 2026-05-04 11:46 | 51.83443 | 6.82734 | 7625 ft | 258 kts | 231° |
| 2026-05-04 11:46 | 51.82324 | 6.80458 | 7364 ft | 258 kts | 231° |
| 2026-05-04 11:47 | 51.81211 | 6.78185 | 7088 ft | 257 kts | 231° |
| 2026-05-04 11:47 | 51.80117 | 6.75945 | 6826 ft | 257 kts | 231° |
| 2026-05-04 11:47 | 51.79013 | 6.73682 | 6563 ft | 256 kts | 232° |
| 2026-05-04 11:47 | 51.77909 | 6.71417 | 6295 ft | 256 kts | 231° |
| 2026-05-04 11:48 | 51.76810 | 6.69162 | 6005 ft | 255 kts | 231° |
| 2026-05-04 11:48 | 51.75716 | 6.66916 | 5750 ft | 254 kts | 231° |
| 2026-05-04 11:48 | 51.74626 | 6.64682 | 5515 ft | 253 kts | 231° |
| 2026-05-04 11:48 | 51.73539 | 6.62453 | 5305 ft | 252 kts | 231° |
| 2026-05-04 11:49 | 51.72459 | 6.60241 | 5078 ft | 252 kts | 231° |
| 2026-05-04 11:49 | 51.71376 | 6.58026 | 4871 ft | 251 kts | 231° |
| 2026-05-04 11:49 | 51.70226 | 6.55961 | 4656 ft | 250 kts | 224° |
| 2026-05-04 11:49 | 51.68947 | 6.54016 | 4436 ft | 249 kts | 223° |
| 2026-05-04 11:50 | 51.67684 | 6.52124 | 4223 ft | 248 kts | 223° |
| 2026-05-04 11:50 | 51.66444 | 6.50248 | 4007 ft | 247 kts | 223° |
| 2026-05-04 11:50 | 51.65200 | 6.48343 | 3809 ft | 247 kts | 224° |
| 2026-05-04 11:50 | 51.63962 | 6.46433 | 3583 ft | 246 kts | 223° |
| 2026-05-04 11:51 | 51.62730 | 6.44530 | 3366 ft | 245 kts | 223° |
| 2026-05-04 11:51 | 51.61497 | 6.42630 | 3156 ft | 245 kts | 223° |
| 2026-05-04 11:51 | 51.60373 | 6.40619 | 3013 ft | 240 kts | 239° |
| 2026-05-04 11:51 | 51.59796 | 6.38146 | 2765 ft | 240 kts | 263° |
| 2026-05-04 11:52 | 51.59810 | 6.35505 | 2480 ft | 233 kts | 270° |
| 2026-05-04 11:52 | 51.59854 | 6.32993 | 2204 ft | 215 kts | 270° |
| 2026-05-04 11:52 | 51.59897 | 6.30653 | 1912 ft | 204 kts | 270° |
| 2026-05-04 11:52 | 51.59943 | 6.28423 | 1657 ft | 194 kts | 270° |
| 2026-05-04 11:53 | 51.59986 | 6.26312 | 1396 ft | 184 kts | 271° |
| 2026-05-04 11:53 | 51.60028 | 6.24307 | 1161 ft | 173 kts | 271° |
| 2026-05-04 11:53 | 51.60069 | 6.22465 | 939 ft | 158 kts | 270° |
| 2026-05-04 11:53 | 51.60104 | 6.20743 | 728 ft | 153 kts | 271° |
| 2026-05-04 11:55 | 51.60206 | 6.12956 | 108 ft | 5 kts | 182° |
| 2026-05-04 11:55 | 51.60128 | 6.12952 | 107 ft | 18 kts | 178° |
| 2026-05-04 11:56 | 51.60078 | 6.13127 | 108 ft | 24 kts | 92° |
| 2026-05-04 11:56 | 51.60073 | 6.13399 | 111 ft | 23 kts | 91° |
| 2026-05-04 11:56 | 51.60068 | 6.13654 | 112 ft | 23 kts | 92° |
| 2026-05-04 11:56 | 51.60062 | 6.13902 | 113 ft | 22 kts | 92° |
| 2026-05-04 11:57 | 51.60056 | 6.14144 | 111 ft | 21 kts | 92° |
| 2026-05-04 11:57 | 51.60051 | 6.14379 | 110 ft | 21 kts | 92° |
| 2026-05-04 11:57 | 51.60049 | 6.14606 | 108 ft | 20 kts | 86° |
| 2026-05-04 11:57 | 51.60032 | 6.14788 | 111 ft | 14 kts | 148° |
| 2026-05-04 11:58 | 51.59941 | 6.14796 | 111 ft | 8 kts | 182° |
| 2026-05-04 11:58 | 51.59919 | 6.14825 | 112 ft | 5 kts | 96° |
| 2026-05-04 11:58 | 51.59918 | 6.14859 | 112 ft | 0 kts | 91° |
| 2026-05-04 11:58 | 51.59918 | 6.14867 | 112 ft | 0 kts | 91° |